This is the latest recevied weather packets stored in our database for station/object 9W2YIE-13. If no packets are shown the sender has not sent any weather packets the latest 10 day(s).
| Time | Temp. | Humidity | Pressure | Rain* | Wind** | Luminosity | Snow |
|---|---|---|---|---|---|---|---|
| 1787825183 | 40° C | 40% | 1005 hPa | - | - | 0 W/m² | - |
| 1787824228 | 37.22° C | 44% | 1005 hPa | - | - | 0 W/m² | - |
| 1787823580 | 46.11° C | 31% | 1004 hPa | - | - | 0 W/m² | - |
| 1787822637 | 48.33° C | 27% | 1004 hPa | - | - | 0 W/m² | - |
| 1787821658 | 52.22° C | 22% | 1004 hPa | - | - | 0 W/m² | - |
| 1787821331 | 51.67° C | 22% | 1004 hPa | - | - | 0 W/m² | - |
| 1787820391 | 51.11° C | 23% | 1004 hPa | - | - | 0 W/m² | - |
| 1787819560 | 51.67° C | 22% | 1004 hPa | - | - | 0 W/m² | - |
| 1787818697 | 51.67° C | 22% | 1004 hPa | - | - | 0 W/m² | - |
| 1787817751 | 51.67° C | 22% | 1004 hPa | - | - | 0 W/m² | - |
| 1787816783 | 48.89° C | 25% | 1004 hPa | - | - | 0 W/m² | - |
| 1787815820 | 50.56° C | 23% | 1004 hPa | - | - | 0 W/m² | - |
| 1787815775 | 51.11° C | 23% | 1004 hPa | - | - | 0 W/m² | - |
| 1787814903 | 48.33° C | 25% | 1004 hPa | - | - | 0 W/m² | - |
| 1787813961 | 48.89° C | 24% | 1005 hPa | - | - | 0 W/m² | - |
| 1787813016 | 50.56° C | 23% | 1005 hPa | - | - | 0 W/m² | - |
| 1787812058 | 50° C | 24% | 1005 hPa | - | - | 0 W/m² | - |
| 1787811103 | 51.11° C | 23% | 1006 hPa | - | - | 0 W/m² | - |
| 1787810142 | 48.33° C | 26% | 1006 hPa | - | - | 0 W/m² | - |
| 1787809170 | 48.89° C | 25% | 1006 hPa | - | - | 0 W/m² | - |
| 1787808381 | 47.22° C | 27% | 1007 hPa | - | - | 0 W/m² | - |
| 1787807262 | 46.67° C | 29% | 1007 hPa | - | - | 0 W/m² | - |
| 1787806288 | 46.67° C | 29% | 1007 hPa | - | - | 0 W/m² | - |
| 1787805323 | 45.56° C | 30% | 1008 hPa | - | - | 0 W/m² | - |
| 1787804348 | 45.56° C | 30% | 1008 hPa | - | - | 0 W/m² | - |
* Rain since midnight (hover to see other rain measurements)
** Current wind speed in m/s (hover to see current wind gust speed)